CCL3 weather

Christina Lake Airport
Christina Lake, Alberta, Canada

Public forecast

Using degrees Celsius for public forecast. Weather courtesy of forecast.io.

METAR (pilot weather report)

Closest report is Fort McMurray Airport, 63.5 nm (117.6 km) NNW. Retrieved 2019/05/25 16:00 UTC (47 minutes ago):

CYMM 251600Z AUTO 03009G16KT 350V080 9SM FEW080 14/M05 A2998 RMK SLP163 DENSITY ALT 1300FT

TAF (pilot weather forecast)

Closest forecast is Fort McMurray Airport, 63.5 nm (117.6 km) NNW. Retrieved 2019/05/25 13:39 UTC (3 hours ago):

TAF CYMM 251238Z 2513/2601 VRB03KT P6SM SCT100 FM251500 35008KT P6SM SKC BECMG 2518/2520 35015KT RMK FCST BASED ON AUTO OBS. NXT FCST BY 251900Z